Time;durP1;ratioP1;P1;durP2;ratioP2;P2;SDS_P1;SDS_P2;PMS_P1;PMS_P2;Temp;Humidity;BMP_temperature;BMP_pressure;BME280_temperature;BME280_humidity;BME280_pressure;Samples;Min_cycle;Max_cycle;Signal;HPM_P1;HPM_P2
2024/03/12 00:00:35;;;;;;;25.38;18.08;;;9.40;99.90;;;;;;4155501;28;20044;-65
2024/03/12 00:02:36;;;;;;;28.35;18.92;;;9.40;99.90;;;;;;4159234;28;20049;-65
2024/03/12 00:04:37;;;;;;;27.63;19.48;;;9.40;99.90;;;;;;4154068;28;20145;-65
2024/03/12 00:06:37;;;;;;;29.45;19.35;;;9.40;99.90;;;;;;4156551;28;20048;-65
2024/03/12 00:08:39;;;;;;;29.55;20.00;;;9.40;99.90;;;;;;4158617;28;20037;-65
2024/03/12 00:10:40;;;;;;;30.23;19.90;;;9.40;99.90;;;;;;4155736;28;20042;-65
2024/03/12 00:12:47;;;;;;;31.17;20.17;;;9.50;99.90;;;;;;4160673;28;20383;-65
2024/03/12 00:14:49;;;;;;;35.92;23.30;;;9.50;99.90;;;;;;4160878;28;20473;-67
2024/03/12 00:16:49;;;;;;;33.83;22.50;;;9.40;99.90;;;;;;4159603;28;20133;-67
2024/03/12 00:18:55;;;;;;;35.53;22.48;;;9.40;99.90;;;;;;4160168;28;20029;-67
2024/03/12 00:20:56;;;;;;;34.30;22.40;;;9.40;99.90;;;;;;4157904;28;20469;-67
2024/03/12 00:22:58;;;;;;;32.88;22.33;;;9.40;99.90;;;;;;4160641;28;20132;-68
2024/03/12 00:24:59;;;;;;;33.75;23.33;;;9.40;99.90;;;;;;4160681;28;20025;-67
2024/03/12 00:27:00;;;;;;;38.60;24.48;;;9.40;99.90;;;;;;4159102;28;20049;-67
2024/03/12 00:29:01;;;;;;;42.38;26.98;;;9.40;99.90;;;;;;4159493;28;20421;-67
2024/03/12 00:31:02;;;;;;;47.72;29.30;;;9.40;99.90;;;;;;4160238;28;20042;-67
2024/03/12 00:33:03;;;;;;;48.10;28.38;;;9.30;99.90;;;;;;4161547;28;20184;-67
2024/03/12 00:35:05;;;;;;;50.07;29.97;;;9.30;99.90;;;;;;4159076;28;20029;-68
2024/03/12 00:37:06;;;;;;;48.27;29.37;;;9.30;99.90;;;;;;4155034;28;20041;-67
2024/03/12 00:39:10;;;;;;;53.17;30.58;;;9.30;99.90;;;;;;4154190;28;20482;-67
2024/03/12 00:41:10;;;;;;;55.65;32.10;;;9.30;99.90;;;;;;4158062;28;20040;-67
2024/03/12 00:43:11;;;;;;;52.30;31.08;;;9.30;99.90;;;;;;4159880;28;20033;-67
2024/03/12 00:45:13;;;;;;;51.28;32.03;;;9.30;99.90;;;;;;4160225;28;20049;-68
2024/03/12 00:47:14;;;;;;;66.40;36.83;;;9.30;99.90;;;;;;4160168;28;20137;-67
2024/03/12 00:49:14;;;;;;;55.92;33.22;;;9.40;99.90;;;;;;4158560;28;20402;-67
2024/03/12 00:51:15;;;;;;;54.25;33.08;;;9.40;99.90;;;;;;4159780;28;20048;-67
2024/03/12 00:53:17;;;;;;;62.10;35.58;;;9.40;99.90;;;;;;4156299;28;20087;-67
2024/03/12 00:55:18;;;;;;;55.90;32.83;;;9.30;99.90;;;;;;4157640;28;20060;-67
2024/03/12 00:57:20;;;;;;;61.22;35.60;;;9.30;99.90;;;;;;4158041;28;20056;-67
2024/03/12 00:59:21;;;;;;;58.78;34.95;;;9.30;99.90;;;;;;4158272;28;20040;-67
2024/03/12 01:01:22;;;;;;;54.25;32.25;;;9.30;99.90;;;;;;4158566;28;20432;-67
2024/03/12 01:03:23;;;;;;;59.42;35.90;;;9.40;99.90;;;;;;4142398;28;20042;-67
2024/03/12 01:05:26;;;;;;;53.42;32.28;;;9.40;99.90;;;;;;4174294;28;20501;-67
2024/03/12 01:07:26;;;;;;;58.92;34.88;;;9.40;99.90;;;;;;4157527;28;20698;-67
2024/03/12 01:09:27;;;;;;;55.80;33.50;;;9.40;99.90;;;;;;4156394;28;20029;-67
2024/03/12 01:11:28;;;;;;;56.33;33.80;;;9.40;99.90;;;;;;4158734;28;20034;-67
2024/03/12 01:13:29;;;;;;;65.85;36.78;;;9.40;99.90;;;;;;4158752;28;20056;-67
2024/03/12 01:15:30;;;;;;;68.70;37.25;;;9.40;99.90;;;;;;4159218;28;20038;-67
2024/03/12 01:17:30;;;;;;;65.70;37.55;;;9.40;99.90;;;;;;4158819;28;20089;-67
2024/03/12 01:19:31;;;;;;;71.13;38.42;;;9.40;99.90;;;;;;4157271;28;20041;-67
2024/03/12 01:21:32;;;;;;;59.88;34.88;;;9.40;99.90;;;;;;4158916;28;20032;-67
2024/03/12 01:23:34;;;;;;;64.55;38.35;;;9.40;99.90;;;;;;4157097;28;20040;-70
2024/03/12 01:25:35;;;;;;;60.37;35.70;;;9.40;99.90;;;;;;4156551;28;20034;-70
2024/03/12 01:27:36;;;;;;;65.88;36.50;;;9.30;99.90;;;;;;4154380;28;20323;-70
2024/03/12 01:29:37;;;;;;;59.15;34.78;;;9.40;99.90;;;;;;4154649;28;20116;-69
2024/03/12 01:31:38;;;;;;;64.50;35.92;;;9.40;99.90;;;;;;4154403;28;20520;-69
2024/03/12 01:33:39;;;;;;;67.47;37.55;;;9.40;99.90;;;;;;4157375;28;20037;-70
2024/03/12 01:35:40;;;;;;;67.68;37.70;;;9.40;99.90;;;;;;4155061;28;20478;-70
2024/03/12 01:37:43;;;;;;;56.13;33.85;;;9.30;99.90;;;;;;4158890;28;20052;-70
2024/03/12 01:39:43;;;;;;;63.72;36.05;;;9.40;99.90;;;;;;4159232;28;20033;-70
2024/03/12 01:41:44;;;;;;;56.90;34.20;;;9.30;99.90;;;;;;4157680;28;20112;-70
2024/03/12 01:43:55;;;;;;;55.22;33.22;;;9.30;99.90;;;;;;4141123;28;20036;-70
2024/03/12 01:45:56;;;;;;;56.10;31.95;;;9.30;99.90;;;;;;4157960;28;20072;-70
2024/03/12 01:48:00;;;;;;;59.53;36.72;;;9.40;99.90;;;;;;4158432;28;20037;-69
2024/03/12 01:50:03;;;;;;;54.22;31.98;;;9.40;99.90;;;;;;4157374;28;20038;-70
2024/03/12 01:52:07;;;;;;;49.15;29.45;;;9.30;99.90;;;;;;4157713;28;20044;-70
2024/03/12 01:54:08;;;;;;;55.55;31.75;;;9.40;99.90;;;;;;4158433;28;20370;-69
2024/03/12 01:56:09;;;;;;;60.47;34.42;;;9.40;99.90;;;;;;4156995;28;20461;-69
2024/03/12 01:58:12;;;;;;;52.60;31.17;;;9.30;99.90;;;;;;4158931;28;20052;-70
2024/03/12 02:00:14;;;;;;;59.45;34.25;;;9.40;99.90;;;;;;4156871;28;20478;-70
2024/03/12 02:02:16;;;;;;;54.28;32.92;;;9.40;99.90;;;;;;4158411;28;20272;-70
2024/03/12 02:04:17;;;;;;;52.45;31.25;;;9.40;99.90;;;;;;4158816;28;20049;-70
2024/03/12 02:06:22;;;;;;;52.35;30.42;;;9.30;99.90;;;;;;4158274;28;20504;-70
2024/03/12 02:08:22;;;;;;;60.28;31.75;;;9.30;99.90;;;;;;4157929;28;20037;-70
2024/03/12 02:10:24;;;;;;;50.80;30.95;;;9.30;99.90;;;;;;4157711;28;20036;-70
2024/03/12 02:12:25;;;;;;;61.45;34.75;;;9.40;99.90;;;;;;4159452;28;20120;-70
2024/03/12 02:14:26;;;;;;;55.85;32.40;;;9.40;99.90;;;;;;4159007;28;20044;-68
2024/03/12 02:16:26;;;;;;;53.97;30.17;;;9.40;99.90;;;;;;4154966;28;20033;-69
2024/03/12 02:18:27;;;;;;;51.28;30.58;;;9.30;99.90;;;;;;4154702;28;20514;-69
2024/03/12 02:20:27;;;;;;;52.55;30.83;;;9.30;99.90;;;;;;4151847;28;20037;-69
2024/03/12 02:22:30;;;;;;;53.40;32.05;;;9.30;99.90;;;;;;4152477;28;20188;-70
2024/03/12 02:24:31;;;;;;;51.60;30.05;;;9.30;99.90;;;;;;4155477;28;20175;-69
2024/03/12 02:26:33;;;;;;;53.10;31.23;;;9.30;99.90;;;;;;4155067;28;20425;-70
2024/03/12 02:28:34;;;;;;;49.78;29.40;;;9.30;99.90;;;;;;4154183;28;20394;-69
2024/03/12 02:30:35;;;;;;;48.45;28.90;;;9.30;99.90;;;;;;4155397;28;20117;-70
2024/03/12 02:32:38;;;;;;;49.05;28.48;;;9.30;99.90;;;;;;4158430;28;20053;-70
2024/03/12 02:34:39;;;;;;;43.65;27.98;;;9.30;99.90;;;;;;4159850;28;20060;-62
2024/03/12 02:36:40;;;;;;;45.70;27.77;;;9.30;99.90;;;;;;4158167;28;20034;-61
2024/03/12 02:38:41;;;;;;;39.35;26.15;;;9.30;99.90;;;;;;4157599;28;20038;-60
2024/03/12 02:40:41;;;;;;;42.50;26.13;;;9.30;99.90;;;;;;4150875;28;20567;-61
2024/03/12 02:42:42;;;;;;;48.58;27.67;;;9.30;99.90;;;;;;4158750;28;20065;-60
2024/03/12 02:44:43;;;;;;;42.40;25.98;;;9.30;99.90;;;;;;4158618;28;20042;-60
2024/03/12 02:46:43;;;;;;;37.05;22.75;;;9.30;99.90;;;;;;4154529;28;20042;-60
2024/03/12 02:48:44;;;;;;;41.30;25.05;;;9.30;99.90;;;;;;4153906;28;20560;-61
2024/03/12 02:50:46;;;;;;;42.42;24.35;;;9.30;99.90;;;;;;4149152;28;20504;-60
2024/03/12 02:52:47;;;;;;;38.58;23.83;;;9.30;99.90;;;;;;4153964;28;20678;-60
2024/03/12 02:54:48;;;;;;;38.30;23.60;;;9.30;99.90;;;;;;4153788;28;20038;-60
2024/03/12 02:56:49;;;;;;;35.22;21.90;;;9.30;99.90;;;;;;4157880;28;20133;-60
2024/03/12 02:58:49;;;;;;;32.15;20.52;;;9.20;99.90;;;;;;4158231;28;20060;-60
2024/03/12 03:00:50;;;;;;;28.80;18.23;;;9.20;99.90;;;;;;4157805;28;20045;-60
2024/03/12 03:02:54;;;;;;;29.27;19.40;;;9.30;99.90;;;;;;4153881;28;20041;-60
2024/03/12 03:04:55;;;;;;;33.17;20.52;;;9.30;99.90;;;;;;4156418;28;20045;-60
2024/03/12 03:06:57;;;;;;;30.48;20.45;;;9.30;99.90;;;;;;4156478;28;20441;-61
2024/03/12 03:09:00;;;;;;;;;;;9.30;99.90;;;;;;4157919;28;20128;-61
2024/03/12 03:11:01;;;;;;;;;;;9.30;99.90;;;;;;4158046;28;19921;-61
2024/03/12 03:13:02;;;;;;;33.10;17.55;;;9.20;99.90;;;;;;4159109;28;19909;-61
2024/03/12 03:15:02;;;;;;;25.92;17.42;;;9.30;99.90;;;;;;4157275;28;20486;-61
2024/03/12 03:17:04;;;;;;;24.65;15.52;;;9.20;99.90;;;;;;4156453;28;20520;-60
2024/03/12 03:19:05;;;;;;;26.13;16.92;;;9.20;99.90;;;;;;4157288;28;20045;-60
2024/03/12 03:21:08;;;;;;;22.30;15.45;;;9.20;99.90;;;;;;4157852;28;20041;-60
2024/03/12 03:23:09;;;;;;;22.55;14.70;;;9.20;99.90;;;;;;4158483;28;20437;-62
2024/03/12 03:25:13;;;;;;;25.08;16.10;;;9.20;99.90;;;;;;4157737;28;20048;-62
2024/03/12 03:27:13;;;;;;;20.33;14.02;;;9.20;99.90;;;;;;4158634;28;20481;-61
2024/03/12 03:29:14;;;;;;;19.90;13.32;;;9.10;99.90;;;;;;4158172;28;20025;-60
2024/03/12 03:31:15;;;;;;;21.00;13.45;;;9.10;99.90;;;;;;4157500;28;20060;-61
2024/03/12 03:33:16;;;;;;;19.75;12.95;;;9.10;99.90;;;;;;4157365;28;20114;-60
2024/03/12 03:35:17;;;;;;;16.35;11.55;;;9.10;99.90;;;;;;4158132;28;20046;-61
2024/03/12 03:37:22;;;;;;;18.50;12.60;;;9.20;99.90;;;;;;4158070;28;20421;-60
2024/03/12 03:39:26;;;;;;;20.30;13.45;;;9.20;99.90;;;;;;4158373;28;20076;-60
2024/03/12 03:41:29;;;;;;;17.30;12.77;;;9.20;99.90;;;;;;4158309;28;20463;-60
2024/03/12 03:43:30;;;;;;;19.75;12.95;;;9.10;99.90;;;;;;4160357;28;20079;-70
2024/03/12 03:45:30;;;;;;;18.27;11.93;;;9.10;99.90;;;;;;4160210;28;21469;-71
2024/03/12 03:47:34;;;;;;;18.63;12.57;;;9.10;99.90;;;;;;4159384;28;20055;-70
2024/03/12 03:49:35;;;;;;;18.67;12.25;;;9.20;99.90;;;;;;4157894;28;20037;-71
2024/03/12 03:51:35;;;;;;;16.90;10.77;;;9.10;99.90;;;;;;4160444;28;20397;-71
2024/03/12 03:53:36;;;;;;;17.75;11.57;;;9.20;99.90;;;;;;4161481;28;20036;-70
2024/03/12 03:55:38;;;;;;;21.50;13.35;;;9.10;99.90;;;;;;4160258;28;20049;-70
2024/03/12 03:57:39;;;;;;;18.45;12.48;;;9.20;99.90;;;;;;4159473;28;20557;-70
2024/03/12 03:59:41;;;;;;;18.17;12.48;;;9.10;99.90;;;;;;4154313;28;20030;-69
2024/03/12 04:01:42;;;;;;;17.15;11.90;;;9.10;99.90;;;;;;4170939;28;20045;-70
2024/03/12 04:03:43;;;;;;;17.67;12.70;;;9.10;99.90;;;;;;4161135;28;20053;-70
2024/03/12 04:05:43;;;;;;;16.80;11.80;;;9.10;99.90;;;;;;4159923;28;20539;-71
2024/03/12 04:07:44;;;;;;;15.65;11.07;;;9.10;99.90;;;;;;4160917;28;20038;-70
2024/03/12 04:09:45;;;;;;;16.98;11.60;;;9.10;99.90;;;;;;4160519;28;20030;-71
2024/03/12 04:11:49;;;;;;;16.27;11.32;;;9.10;99.90;;;;;;4160398;28;20026;-70
2024/03/12 04:13:54;;;;;;;14.38;10.27;;;9.10;99.90;;;;;;4160986;28;20038;-71
2024/03/12 04:15:55;;;;;;;14.90;10.43;;;9.10;99.90;;;;;;4160210;28;20379;-71
2024/03/12 04:17:56;;;;;;;16.35;11.52;;;9.10;99.90;;;;;;4160762;28;20072;-71
2024/03/12 04:19:57;;;;;;;17.75;11.43;;;9.10;99.90;;;;;;4160666;28;20034;-71
2024/03/12 04:21:58;;;;;;;18.20;12.10;;;9.10;99.90;;;;;;4160633;28;20117;-71
2024/03/12 04:23:59;;;;;;;16.60;10.77;;;9.00;99.90;;;;;;4161072;28;20160;-69
2024/03/12 04:25:59;;;;;;;17.75;11.40;;;9.00;99.90;;;;;;4160198;28;20441;-69
2024/03/12 04:28:00;;;;;;;16.77;11.15;;;9.00;99.90;;;;;;4160084;28;20048;-71
2024/03/12 04:30:04;;;;;;;15.18;10.73;;;9.10;99.90;;;;;;4159053;28;20127;-71
2024/03/12 04:32:05;;;;;;;18.95;13.00;;;9.00;99.90;;;;;;4160136;28;20120;-72
2024/03/12 04:34:08;;;;;;;21.55;13.77;;;9.00;99.90;;;;;;4160771;28;20037;-72
2024/03/12 04:36:13;;;;;;;18.55;12.10;;;9.00;99.90;;;;;;4159640;28;20140;-72
2024/03/12 04:38:14;;;;;;;16.60;10.93;;;9.00;99.90;;;;;;4158796;28;20393;-72
2024/03/12 04:40:15;;;;;;;19.63;11.65;;;9.00;99.90;;;;;;4158583;28;20064;-72
2024/03/12 04:42:16;;;;;;;17.27;11.38;;;9.00;99.90;;;;;;4158306;28;20044;-72
2024/03/12 04:44:17;;;;;;;19.58;12.02;;;9.00;99.90;;;;;;4157787;28;20038;-72
2024/03/12 04:46:18;;;;;;;16.10;11.25;;;9.00;99.90;;;;;;4155078;28;20044;-72
2024/03/12 04:48:18;;;;;;;19.60;11.93;;;9.00;99.90;;;;;;4157387;28;20037;-72
2024/03/12 04:50:22;;;;;;;18.63;12.02;;;9.00;99.90;;;;;;4158008;28;20045;-72
2024/03/12 04:52:23;;;;;;;17.52;11.63;;;9.00;99.90;;;;;;4158710;28;20041;-72
2024/03/12 04:54:23;;;;;;;16.70;11.43;;;8.90;99.90;;;;;;4160863;28;20480;-66
2024/03/12 04:56:24;;;;;;;21.27;12.43;;;8.90;99.90;;;;;;4157655;28;20037;-66
2024/03/12 04:58:25;;;;;;;16.95;11.20;;;8.90;99.90;;;;;;4158226;28;20057;-66
2024/03/12 05:00:26;;;;;;;16.25;11.02;;;8.90;99.90;;;;;;4157972;28;20180;-66
2024/03/12 05:02:27;;;;;;;16.83;11.10;;;8.90;99.90;;;;;;4160319;28;20037;-66
2024/03/12 05:04:27;;;;;;;18.98;11.93;;;8.90;99.90;;;;;;4155646;28;20179;-66
2024/03/12 05:06:28;;;;;;;16.30;10.80;;;8.90;99.90;;;;;;4159455;28;20120;-68
2024/03/12 05:08:29;;;;;;;16.23;10.45;;;8.80;99.90;;;;;;4156361;28;20949;-67
2024/03/12 05:10:30;;;;;;;19.02;11.20;;;8.90;99.90;;;;;;4155634;28;20033;-67
2024/03/12 05:12:30;;;;;;;21.73;11.77;;;8.90;99.90;;;;;;4160239;28;20494;-67
2024/03/12 05:14:31;;;;;;;21.23;13.30;;;8.90;99.90;;;;;;4159942;28;20034;-66
2024/03/12 05:16:31;;;;;;;19.48;12.05;;;8.90;99.90;;;;;;4158926;28;20045;-66
2024/03/12 05:18:32;;;;;;;17.80;11.70;;;8.90;99.90;;;;;;4156786;28;20030;-66
2024/03/12 05:20:36;;;;;;;19.63;12.15;;;8.90;99.90;;;;;;4158154;28;20034;-67
2024/03/12 05:22:36;;;;;;;20.27;12.32;;;8.80;99.90;;;;;;4158935;28;20029;-66
2024/03/12 05:24:37;;;;;;;17.80;11.68;;;8.80;99.90;;;;;;4159787;28;20083;-66
2024/03/12 05:26:44;;;;;;;19.80;11.57;;;8.90;99.90;;;;;;4156000;28;20042;-66
2024/03/12 05:28:44;;;;;;;19.70;11.57;;;8.80;99.90;;;;;;4155631;28;20517;-66
2024/03/12 05:30:45;;;;;;;21.10;12.75;;;8.90;99.90;;;;;;4158098;28;20026;-66
2024/03/12 05:32:48;;;;;;;16.73;11.02;;;8.80;99.90;;;;;;4159104;28;20029;-66
2024/03/12 05:34:52;;;;;;;18.70;11.82;;;8.90;99.90;;;;;;4157850;28;20085;-66
2024/03/12 05:37:02;;;;;;;20.05;12.05;;;8.90;99.90;;;;;;4157731;28;20628;-66
2024/03/12 05:39:05;;;;;;;18.38;11.13;;;8.90;99.90;;;;;;4157375;28;20459;-66
2024/03/12 05:50:08;;;;;;;19.73;11.77;;;8.90;99.90;;;;;;4154620;28;20371;-67
2024/03/12 05:52:09;;;;;;;18.60;12.40;;;8.80;99.90;;;;;;4152711;28;20037;-66
2024/03/12 05:54:09;;;;;;;18.95;11.77;;;8.80;99.90;;;;;;4150189;28;20037;-66
2024/03/12 05:56:11;;;;;;;18.77;10.65;;;8.80;99.90;;;;;;4150851;28;20086;-66
2024/03/12 05:58:15;;;;;;;19.87;11.77;;;8.80;99.90;;;;;;4152542;28;20041;-66
2024/03/12 06:00:17;;;;;;;23.42;13.18;;;8.90;99.90;;;;;;4150699;28;20998;-66
2024/03/12 06:02:18;;;;;;;25.55;13.50;;;8.80;99.90;;;;;;4153543;28;20073;-66
2024/03/12 06:04:19;;;;;;;20.83;12.25;;;8.80;99.90;;;;;;4152847;28;20076;-60
2024/03/12 06:06:22;;;;;;;19.33;11.82;;;8.80;99.90;;;;;;4151925;28;20084;-60
2024/03/12 06:08:24;;;;;;;18.20;11.35;;;8.70;99.90;;;;;;4154458;28;20107;-60
2024/03/12 06:10:25;;;;;;;18.38;11.35;;;8.80;99.90;;;;;;4142188;28;20120;-60
2024/03/12 06:12:26;;;;;;;18.13;11.27;;;8.80;99.90;;;;;;4152088;28;20065;-60
2024/03/12 06:14:27;;;;;;;21.55;12.77;;;8.80;99.90;;;;;;4153970;28;20068;-60
2024/03/12 06:16:28;;;;;;;24.30;12.90;;;8.80;99.90;;;;;;4140194;28;20229;-60
2024/03/12 06:18:29;;;;;;;18.67;11.10;;;8.80;99.90;;;;;;4151009;28;20033;-60
2024/03/12 06:20:32;;;;;;;16.17;9.73;;;8.80;99.90;;;;;;4151663;28;20096;-63
2024/03/12 06:22:32;;;;;;;17.17;10.95;;;8.80;99.90;;;;;;4152331;28;20041;-60
2024/03/12 06:24:34;;;;;;;15.98;10.82;;;8.80;99.90;;;;;;4151583;28;20052;-60
2024/03/12 06:26:35;;;;;;;14.75;9.50;;;8.80;99.90;;;;;;4142979;28;20052;-60
2024/03/12 06:28:35;;;;;;;15.82;10.25;;;8.80;99.90;;;;;;4150178;28;20398;-61
2024/03/12 06:30:36;;;;;;;16.20;10.88;;;8.80;99.90;;;;;;4148139;28;20446;-62
2024/03/12 06:32:37;;;;;;;15.73;10.73;;;8.90;99.90;;;;;;4150875;28;20567;-61
2024/03/12 06:34:38;;;;;;;17.10;11.35;;;8.90;99.90;;;;;;4151687;28;20551;-60
2024/03/12 06:36:39;;;;;;;19.05;10.60;;;8.80;99.90;;;;;;4147126;28;20050;-60
2024/03/12 06:38:41;;;;;;;15.73;9.40;;;8.80;99.90;;;;;;4151713;28;20435;-59
2024/03/12 06:40:42;;;;;;;16.52;9.82;;;8.80;99.90;;;;;;4181987;28;20063;-60
2024/03/12 06:42:44;;;;;;;16.93;10.73;;;8.80;99.90;;;;;;4153361;28;20061;-60
2024/03/12 06:44:49;;;;;;;22.13;12.23;;;8.80;99.90;;;;;;4153069;28;20042;-60
2024/03/12 06:46:50;;;;;;;22.17;12.90;;;8.70;99.90;;;;;;4151553;28;20085;-61
2024/03/12 06:48:52;;;;;;;20.08;12.05;;;8.80;99.90;;;;;;4152009;28;20526;-61
2024/03/12 06:50:53;;;;;;;26.05;12.98;;;8.80;99.90;;;;;;4135634;28;20054;-59
2024/03/12 06:52:55;;;;;;;25.65;13.32;;;8.80;99.90;;;;;;4144784;28;20128;-60
2024/03/12 06:54:55;;;;;;;29.80;15.40;;;8.80;99.90;;;;;;4143380;28;20163;-59
2024/03/12 06:56:56;;;;;;;27.33;14.23;;;8.70;99.90;;;;;;4145795;28;20069;-59
2024/03/12 06:58:57;;;;;;;33.40;15.95;;;8.70;99.90;;;;;;4151345;28;20379;-60
2024/03/12 07:00:58;;;;;;;33.05;16.27;;;8.70;99.90;;;;;;4149488;28;20041;-60
2024/03/12 07:03:02;;;;;;;36.20;16.42;;;8.70;99.90;;;;;;4153266;28;20107;-59
2024/03/12 07:05:09;;;;;;;27.90;15.02;;;8.70;99.90;;;;;;4155093;28;20068;-60
2024/03/12 07:07:11;;;;;;;29.63;15.68;;;8.70;99.90;;;;;;4154657;28;20431;-60
2024/03/12 07:09:22;;;;;;;28.77;15.32;;;8.60;99.90;;;;;;4155030;28;20127;-60
2024/03/12 07:11:25;;;;;;;27.30;15.27;;;8.70;99.90;;;;;;4153506;28;20076;-59
2024/03/12 07:13:26;;;;;;;33.25;16.95;;;8.70;99.90;;;;;;4155599;28;20049;-70
2024/03/12 07:15:28;;;;;;;32.03;16.05;;;8.70;99.90;;;;;;4153208;28;21388;-60
2024/03/12 07:17:28;;;;;;;28.50;14.50;;;8.60;99.90;;;;;;4155883;28;20049;-60
2024/03/12 07:19:29;;;;;;;33.95;15.32;;;8.70;99.90;;;;;;4148767;28;20571;-60
2024/03/12 07:21:29;;;;;;;36.38;16.45;;;8.60;99.90;;;;;;4150953;28;20433;-60
2024/03/12 07:23:31;;;;;;;35.28;16.90;;;8.60;99.90;;;;;;4154595;28;20040;-63
2024/03/12 07:25:32;;;;;;;26.15;14.57;;;8.70;99.90;;;;;;4153558;28;20112;-60
2024/03/12 07:27:32;;;;;;;25.33;13.77;;;8.70;99.90;;;;;;4151978;28;20045;-60
2024/03/12 07:29:33;;;;;;;28.50;15.52;;;8.70;99.90;;;;;;4154615;28;20033;-60
2024/03/12 07:31:34;;;;;;;29.73;15.52;;;8.70;99.90;;;;;;4155673;28;20383;-60
2024/03/12 07:33:35;;;;;;;25.85;13.85;;;8.70;99.90;;;;;;4156512;28;20045;-60
2024/03/12 07:35:35;;;;;;;28.63;15.15;;;8.80;99.90;;;;;;4156576;28;20394;-60
2024/03/12 07:37:38;;;;;;;28.08;15.30;;;8.80;99.90;;;;;;4157472;28;20427;-60
2024/03/12 07:39:39;;;;;;;24.60;13.20;;;8.70;99.90;;;;;;4155605;28;20519;-60
2024/03/12 07:41:39;;;;;;;26.60;14.73;;;8.80;99.90;;;;;;4151933;28;20124;-60
2024/03/12 07:43:40;;;;;;;27.13;14.15;;;8.70;99.90;;;;;;4158403;28;20445;-60
2024/03/12 07:45:46;;;;;;;21.58;12.25;;;8.70;99.90;;;;;;4155765;28;20034;-60
2024/03/12 07:47:47;;;;;;;24.90;14.60;;;8.70;99.90;;;;;;4152083;28;20034;-60
2024/03/12 07:49:47;;;;;;;24.52;13.82;;;8.80;99.90;;;;;;4157070;28;20407;-60
2024/03/12 07:51:49;;;;;;;31.60;15.00;;;8.70;99.90;;;;;;4149647;28;20054;-60
2024/03/12 07:53:49;;;;;;;26.27;13.73;;;8.70;99.90;;;;;;4154936;28;20056;-61
2024/03/12 07:55:54;;;;;;;27.95;13.43;;;8.80;99.90;;;;;;4155258;28;20095;-61
2024/03/12 07:57:55;;;;;;;26.90;14.32;;;8.80;99.90;;;;;;4151846;28;20037;-60
2024/03/12 07:59:57;;;;;;;27.90;15.00;;;8.80;99.90;;;;;;4157163;28;20117;-60
2024/03/12 08:01:58;;;;;;;;;;;8.80;99.90;;;;;;4157082;28;20045;-60
2024/03/12 08:03:58;;;;;;;23.90;12.40;;;8.70;99.90;;;;;;4154757;28;20051;-60
2024/03/12 08:05:59;;;;;;;23.63;14.00;;;8.80;99.90;;;;;;4156683;28;20188;-60
2024/03/12 08:08:00;;;;;;;21.90;13.15;;;8.80;99.90;;;;;;4156564;28;20489;-60
2024/03/12 08:10:00;;;;;;;26.83;13.23;;;8.80;99.90;;;;;;4155076;28;20113;-60
2024/03/12 08:12:01;;;;;;;22.58;12.82;;;8.80;99.90;;;;;;4149451;28;20047;-60
2024/03/12 08:14:06;;;;;;;21.63;12.07;;;8.80;99.90;;;;;;4157651;28;20935;-60
2024/03/12 08:16:07;;;;;;;20.30;11.80;;;8.80;99.90;;;;;;4154220;28;20045;-60
2024/03/12 08:18:09;;;;;;;22.48;12.55;;;8.80;99.90;;;;;;4152713;28;20049;-60
2024/03/12 08:20:13;;;;;;;24.67;13.23;;;8.80;99.90;;;;;;4153927;28;20034;-61
2024/03/12 08:22:14;;;;;;;19.35;12.15;;;8.80;99.90;;;;;;4152924;28;20284;-60
2024/03/12 08:24:14;;;;;;;21.08;12.23;;;8.80;99.90;;;;;;4154930;28;20593;-67
2024/03/12 08:26:15;;;;;;;21.13;11.93;;;8.80;99.90;;;;;;4154310;28;20057;-68
2024/03/12 08:28:16;;;;;;;19.70;11.25;;;8.80;99.90;;;;;;4155861;28;20060;-68
2024/03/12 08:30:18;;;;;;;23.52;13.00;;;8.80;99.90;;;;;;4155199;28;20045;-67
2024/03/12 08:32:20;;;;;;;22.57;12.73;;;8.80;99.90;;;;;;4157520;28;20045;-67
2024/03/12 08:34:21;;;;;;;24.15;13.93;;;8.80;99.90;;;;;;4157975;28;20045;-68
2024/03/12 08:36:22;;;;;;;22.00;12.35;;;8.80;99.90;;;;;;4154408;28;20631;-67
2024/03/12 08:38:23;;;;;;;24.83;13.40;;;8.80;99.90;;;;;;4156521;28;20046;-67
2024/03/12 08:40:24;;;;;;;24.85;14.13;;;8.80;99.90;;;;;;4154740;28;20368;-68
2024/03/12 08:42:26;;;;;;;25.85;14.27;;;8.80;99.90;;;;;;4160218;28;20041;-68
2024/03/12 08:44:27;;;;;;;24.25;13.93;;;8.80;99.90;;;;;;4158299;28;20450;-67
2024/03/12 08:46:28;;;;;;;20.48;12.32;;;8.80;99.90;;;;;;4155039;28;20207;-67
2024/03/12 08:48:29;;;;;;;18.05;10.88;;;8.80;99.90;;;;;;4157181;28;20033;-68
2024/03/12 08:50:30;;;;;;;21.88;12.88;;;8.90;99.90;;;;;;4172892;28;20115;-67
2024/03/12 08:52:30;;;;;;;24.00;13.82;;;8.90;99.90;;;;;;4158765;28;20120;-68
2024/03/12 08:54:31;;;;;;;24.30;13.88;;;8.90;99.90;;;;;;4160844;28;20041;-68
2024/03/12 08:56:35;;;;;;;22.80;13.32;;;8.90;99.90;;;;;;4158341;28;20041;-67
2024/03/12 08:58:36;;;;;;;22.90;13.02;;;8.90;99.90;;;;;;4152820;28;20034;-67
2024/03/12 09:00:37;;;;;;;24.42;14.80;;;8.90;99.90;;;;;;4160447;28;20390;-67
2024/03/12 09:02:39;;;;;;;20.70;13.40;;;8.90;99.90;;;;;;4157811;28;20049;-67
2024/03/12 09:04:39;;;;;;;26.27;14.95;;;8.90;99.90;;;;;;4154153;28;20645;-68
2024/03/12 09:06:40;;;;;;;27.30;15.15;;;8.90;99.90;;;;;;4155676;28;20112;-67
2024/03/12 09:08:41;;;;;;;30.40;17.15;;;8.90;99.90;;;;;;4158904;28;20086;-67
2024/03/12 09:10:42;;;;;;;28.58;16.17;;;9.00;99.90;;;;;;4156838;28;20219;-67
2024/03/12 09:12:42;;;;;;;33.10;17.30;;;9.00;99.90;;;;;;4159071;28;20034;-68
2024/03/12 09:14:43;;;;;;;30.85;17.50;;;9.00;99.90;;;;;;4158408;28;20041;-68
2024/03/12 09:16:44;;;;;;;26.42;16.13;;;9.00;99.90;;;;;;4156910;28;20048;-67
2024/03/12 09:18:44;;;;;;;26.23;16.10;;;9.00;99.90;;;;;;4156526;28;20042;-68
2024/03/12 09:20:46;;;;;;;27.60;16.55;;;9.00;99.90;;;;;;4158046;28;20042;-68
2024/03/12 09:22:48;;;;;;;33.45;18.85;;;9.00;99.90;;;;;;4155171;28;20524;-68
2024/03/12 09:24:49;;;;;;;32.45;18.35;;;9.00;99.90;;;;;;4157581;28;20390;-67
2024/03/12 09:26:51;;;;;;;26.85;16.58;;;9.00;99.90;;;;;;4155260;28;20411;-68
2024/03/12 09:28:52;;;;;;;26.77;15.45;;;9.00;99.90;;;;;;4158464;28;20518;-67
2024/03/12 09:30:54;;;;;;;32.42;18.15;;;9.10;99.90;;;;;;4156514;28;20053;-68
2024/03/12 09:32:54;;;;;;;31.08;18.02;;;9.10;99.90;;;;;;4156056;28;20129;-60
2024/03/12 09:34:55;;;;;;;36.50;18.10;;;9.10;99.90;;;;;;4157806;28;20088;-65
2024/03/12 09:36:56;;;;;;;26.10;16.42;;;9.00;99.90;;;;;;4156985;28;20094;-65
2024/03/12 09:38:56;;;;;;;27.73;17.45;;;9.10;99.90;;;;;;4157055;28;20037;-64
2024/03/12 09:40:59;;;;;;;30.48;17.15;;;9.10;99.90;;;;;;4154911;28;20861;-64
2024/03/12 09:43:02;;;;;;;30.08;16.73;;;9.10;99.90;;;;;;4165654;28;20455;-64
2024/03/12 09:45:08;;;;;;;33.03;18.77;;;9.10;99.90;;;;;;4158654;28;20112;-64
2024/03/12 09:47:10;;;;;;;27.73;17.45;;;9.10;99.90;;;;;;4158876;28;20119;-64
2024/03/12 09:49:14;;;;;;;32.35;17.55;;;9.10;99.90;;;;;;4151852;28;20068;-64
2024/03/12 09:51:16;;;;;;;32.03;18.50;;;9.10;99.90;;;;;;4159185;28;20128;-64
2024/03/12 09:53:17;;;;;;;31.95;18.23;;;9.10;99.90;;;;;;4145584;28;20310;-64
2024/03/12 09:55:21;;;;;;;25.83;15.50;;;9.10;99.90;;;;;;4153412;28;20044;-64
2024/03/12 09:57:24;;;;;;;24.13;15.20;;;9.10;99.90;;;;;;4154624;28;20045;-64
2024/03/12 09:59:25;;;;;;;29.13;17.15;;;9.20;99.90;;;;;;4150731;28;20041;-64
2024/03/12 10:01:26;;;;;;;28.48;16.00;;;9.20;99.90;;;;;;4146263;28;20064;-64
2024/03/12 10:03:27;;;;;;;31.67;19.80;;;9.10;99.90;;;;;;4154313;28;20049;-64
2024/03/12 10:05:27;;;;;;;31.63;18.52;;;9.10;99.90;;;;;;4155238;28;20117;-66
2024/03/12 10:07:28;;;;;;;30.45;18.33;;;9.20;99.90;;;;;;4157328;28;20410;-64
2024/03/12 10:09:30;;;;;;;29.50;18.15;;;9.20;99.90;;;;;;4155986;28;20033;-64
2024/03/12 10:11:32;;;;;;;27.45;17.52;;;9.20;99.90;;;;;;4158032;28;20469;-64
2024/03/12 10:13:34;;;;;;;30.10;19.02;;;9.10;99.90;;;;;;4155571;28;20045;-65
2024/03/12 10:15:37;;;;;;;30.95;18.48;;;9.10;99.90;;;;;;4156315;28;20041;-65
2024/03/12 10:17:39;;;;;;;38.05;18.25;;;9.10;99.90;;;;;;4158444;28;20041;-64
2024/03/12 10:19:43;;;;;;;31.58;18.60;;;9.00;99.90;;;;;;4153154;28;20034;-64
2024/03/12 10:21:45;;;;;;;28.17;17.33;;;9.00;99.90;;;;;;4155501;28;20549;-64
2024/03/12 10:23:46;;;;;;;23.58;15.57;;;8.90;99.90;;;;;;4156366;28;20033;-64
2024/03/12 10:25:48;;;;;;;33.22;19.38;;;9.00;99.90;;;;;;4155642;28;20053;-64
2024/03/12 10:27:56;;;;;;;26.83;16.60;;;9.00;99.90;;;;;;4155861;28;20494;-64
2024/03/12 10:29:57;;;;;;;28.48;17.23;;;9.00;99.90;;;;;;4159876;28;20148;-64
2024/03/12 10:31:58;;;;;;;28.95;17.50;;;9.00;99.90;;;;;;4155512;28;20056;-64
2024/03/12 10:34:06;;;;;;;32.47;18.40;;;9.00;99.90;;;;;;4157283;28;20025;-66